ARE4292 SKBO-SKAR
Flight info
| Callsign | ARE4292 |
|---|---|
| Flight time | 0h 25m |
| Altitude | 17999 |
| Route | ISNOX2S ISNOX ISNOX1K |
| Aircraft | A320/M-SDE3FGHIRWY/LB1 |
Departure
| Time | 2026-05-07 21:19 |
|---|---|
| Airport | El Dorado International Airport (SKBO) |
Arrival
| Time | 2026-05-07 21:44 |
|---|---|
| Airport | El Eden Airport (SKAR) |
| Time | Latitude | Longitude | Altitude | Speed | Heading |
|---|---|---|---|---|---|
| 2026-05-07 21:03 | 4.69962 | -74.14293 | 8372 ft | 0 kts | 37° |
| 2026-05-07 21:05 | 4.69953 | -74.14300 | 8372 ft | 2 kts | 37° |
| 2026-05-07 21:05 | 4.69940 | -74.14309 | 8372 ft | 2 kts | 37° |
| 2026-05-07 21:06 | 4.69928 | -74.14318 | 8372 ft | 2 kts | 37° |
| 2026-05-07 21:06 | 4.69916 | -74.14327 | 8372 ft | 1 kts | 37° |
| 2026-05-07 21:06 | 4.69910 | -74.14332 | 8372 ft | 1 kts | 11° |
| 2026-05-07 21:06 | 4.69902 | -74.14330 | 8372 ft | 0 kts | 313° |
| 2026-05-07 21:07 | 4.69904 | -74.14332 | 8372 ft | 2 kts | 318° |
| 2026-05-07 21:07 | 4.69919 | -74.14349 | 8372 ft | 1 kts | 307° |
| 2026-05-07 21:07 | 4.69919 | -74.14351 | 8372 ft | 0 kts | 307° |
| 2026-05-07 21:09 | 4.69922 | -74.14353 | 8371 ft | 1 kts | 307° |
| 2026-05-07 21:09 | 4.69939 | -74.14376 | 8371 ft | 6 kts | 308° |
| 2026-05-07 21:10 | 4.69975 | -74.14422 | 8371 ft | 10 kts | 308° |
| 2026-05-07 21:10 | 4.70021 | -74.14483 | 8371 ft | 11 kts | 307° |
| 2026-05-07 21:10 | 4.70067 | -74.14545 | 8371 ft | 11 kts | 302° |
| 2026-05-07 21:10 | 4.70098 | -74.14617 | 8371 ft | 11 kts | 313° |
| 2026-05-07 21:11 | 4.70156 | -74.14674 | 8371 ft | 11 kts | 296° |
| 2026-05-07 21:11 | 4.70121 | -74.14736 | 8371 ft | 11 kts | 216° |
| 2026-05-07 21:11 | 4.69981 | -74.14838 | 8370 ft | 12 kts | 217° |
| 2026-05-07 21:12 | 4.69909 | -74.14893 | 8370 ft | 13 kts | 218° |
| 2026-05-07 21:12 | 4.69848 | -74.14959 | 8370 ft | 13 kts | 264° |
| 2026-05-07 21:12 | 4.69897 | -74.15035 | 8370 ft | 13 kts | 309° |
| 2026-05-07 21:12 | 4.69956 | -74.15111 | 8370 ft | 13 kts | 307° |
| 2026-05-07 21:13 | 4.70014 | -74.15189 | 8370 ft | 14 kts | 306° |
| 2026-05-07 21:13 | 4.70077 | -74.15274 | 8370 ft | 15 kts | 307° |
| 2026-05-07 21:13 | 4.70146 | -74.15363 | 8369 ft | 16 kts | 307° |
| 2026-05-07 21:13 | 4.70218 | -74.15459 | 8369 ft | 17 kts | 306° |
| 2026-05-07 21:14 | 4.70295 | -74.15560 | 8369 ft | 18 kts | 307° |
| 2026-05-07 21:14 | 4.70375 | -74.15666 | 8369 ft | 18 kts | 307° |
| 2026-05-07 21:14 | 4.70452 | -74.15768 | 8369 ft | 18 kts | 306° |
| 2026-05-07 21:14 | 4.70528 | -74.15871 | 8368 ft | 18 kts | 307° |
| 2026-05-07 21:15 | 4.70604 | -74.15970 | 8368 ft | 17 kts | 307° |
| 2026-05-07 21:15 | 4.70679 | -74.16068 | 8368 ft | 17 kts | 307° |
| 2026-05-07 21:15 | 4.70754 | -74.16166 | 8368 ft | 17 kts | 306° |
| 2026-05-07 21:15 | 4.70827 | -74.16267 | 8367 ft | 17 kts | 307° |
| 2026-05-07 21:16 | 4.70904 | -74.16367 | 8367 ft | 18 kts | 307° |
| 2026-05-07 21:16 | 4.70980 | -74.16467 | 8367 ft | 18 kts | 307° |
| 2026-05-07 21:16 | 4.71059 | -74.16570 | 8367 ft | 18 kts | 308° |
| 2026-05-07 21:16 | 4.71136 | -74.16672 | 8366 ft | 18 kts | 307° |
| 2026-05-07 21:17 | 4.71204 | -74.16774 | 8366 ft | 15 kts | 279° |
| 2026-05-07 21:17 | 4.71139 | -74.16843 | 8366 ft | 14 kts | 212° |
| 2026-05-07 21:17 | 4.71063 | -74.16891 | 8366 ft | 10 kts | 213° |
| 2026-05-07 21:17 | 4.71023 | -74.16883 | 8366 ft | 3 kts | 126° |
| 2026-05-07 21:18 | 4.71018 | -74.16876 | 8366 ft | 0 kts | 126° |
| 2026-05-07 21:18 | 4.70961 | -74.16798 | 8366 ft | 43 kts | 127° |
| 2026-05-07 21:18 | 4.70634 | -74.16368 | 8367 ft | 109 kts | 127° |
| 2026-05-07 21:18 | 4.70040 | -74.15583 | 8369 ft | 167 kts | 126° |
| 2026-05-07 21:19 | 4.69289 | -74.14568 | 8755 ft | 182 kts | 126° |
| 2026-05-07 21:19 | 4.68446 | -74.13588 | 9362 ft | 186 kts | 144° |
| 2026-05-07 21:19 | 4.67133 | -74.13254 | 9848 ft | 200 kts | 188° |
| 2026-05-07 21:19 | 4.65862 | -74.13897 | 10175 ft | 214 kts | 228° |
| 2026-05-07 21:20 | 4.65015 | -74.15202 | 10459 ft | 228 kts | 240° |
| 2026-05-07 21:20 | 4.64167 | -74.16621 | 10737 ft | 243 kts | 239° |
| 2026-05-07 21:20 | 4.63229 | -74.18144 | 10959 ft | 262 kts | 237° |
| 2026-05-07 21:20 | 4.62222 | -74.19746 | 11521 ft | 267 kts | 241° |
| 2026-05-07 21:21 | 4.61446 | -74.21454 | 12148 ft | 268 kts | 253° |
| 2026-05-07 21:21 | 4.60979 | -74.23412 | 12541 ft | 282 kts | 260° |
| 2026-05-07 21:21 | 4.60579 | -74.25551 | 12850 ft | 300 kts | 258° |
| 2026-05-07 21:21 | 4.59922 | -74.27834 | 13133 ft | 317 kts | 249° |
| 2026-05-07 21:22 | 4.58977 | -74.29953 | 13376 ft | 333 kts | 243° |
| 2026-05-07 21:22 | 4.57874 | -74.32119 | 13607 ft | 348 kts | 243° |
| 2026-05-07 21:22 | 4.56652 | -74.34473 | 13811 ft | 364 kts | 242° |
| 2026-05-07 21:22 | 4.55333 | -74.37019 | 14021 ft | 378 kts | 242° |
| 2026-05-07 21:23 | 4.53993 | -74.39619 | 14229 ft | 392 kts | 243° |
| 2026-05-07 21:23 | 4.52717 | -74.42103 | 14558 ft | 399 kts | 243° |
| 2026-05-07 21:23 | 4.51361 | -74.44746 | 15016 ft | 401 kts | 243° |
| 2026-05-07 21:23 | 4.50088 | -74.47233 | 15428 ft | 403 kts | 243° |
| 2026-05-07 21:24 | 4.48803 | -74.49744 | 15812 ft | 407 kts | 242° |
| 2026-05-07 21:24 | 4.47497 | -74.52293 | 16265 ft | 410 kts | 243° |
| 2026-05-07 21:24 | 4.46188 | -74.54848 | 16684 ft | 412 kts | 243° |
| 2026-05-07 21:24 | 4.44769 | -74.57619 | 17110 ft | 415 kts | 243° |
| 2026-05-07 21:25 | 4.43409 | -74.60277 | 17494 ft | 418 kts | 243° |
| 2026-05-07 21:25 | 4.42010 | -74.63009 | 17607 ft | 420 kts | 243° |
| 2026-05-07 21:25 | 4.40581 | -74.65801 | 17591 ft | 419 kts | 242° |
| 2026-05-07 21:25 | 4.39218 | -74.68462 | 17585 ft | 418 kts | 242° |
| 2026-05-07 21:26 | 4.37794 | -74.71229 | 17578 ft | 418 kts | 242° |
| 2026-05-07 21:26 | 4.36412 | -74.73911 | 17570 ft | 419 kts | 242° |
| 2026-05-07 21:26 | 4.35004 | -74.76642 | 17561 ft | 419 kts | 242° |
| 2026-05-07 21:26 | 4.33572 | -74.79421 | 17524 ft | 418 kts | 242° |
| 2026-05-07 21:27 | 4.32243 | -74.82236 | 17501 ft | 419 kts | 250° |
| 2026-05-07 21:27 | 4.31604 | -74.85188 | 17506 ft | 419 kts | 265° |
| 2026-05-07 21:27 | 4.31730 | -74.88217 | 17511 ft | 419 kts | 280° |
| 2026-05-07 21:27 | 4.32410 | -74.91312 | 17517 ft | 419 kts | 284° |
| 2026-05-07 21:28 | 4.33181 | -74.94429 | 17535 ft | 418 kts | 284° |
| 2026-05-07 21:28 | 4.33883 | -74.97317 | 17541 ft | 418 kts | 284° |
| 2026-05-07 21:28 | 4.34570 | -75.00240 | 17528 ft | 418 kts | 284° |
| 2026-05-07 21:28 | 4.35273 | -75.03288 | 17551 ft | 418 kts | 283° |
| 2026-05-07 21:29 | 4.35968 | -75.06316 | 17560 ft | 418 kts | 283° |
| 2026-05-07 21:29 | 4.36666 | -75.09356 | 17576 ft | 418 kts | 283° |
| 2026-05-07 21:29 | 4.37375 | -75.12444 | 17594 ft | 419 kts | 283° |
| 2026-05-07 21:29 | 4.38086 | -75.15543 | 17613 ft | 419 kts | 283° |
| 2026-05-07 21:30 | 4.38776 | -75.18555 | 17617 ft | 419 kts | 283° |
| 2026-05-07 21:30 | 4.39440 | -75.21455 | 17636 ft | 419 kts | 283° |
| 2026-05-07 21:30 | 4.40158 | -75.24590 | 17670 ft | 417 kts | 283° |
| 2026-05-07 21:30 | 4.40860 | -75.27655 | 17716 ft | 395 kts | 283° |
| 2026-05-07 21:31 | 4.41538 | -75.30618 | 17758 ft | 374 kts | 283° |
| 2026-05-07 21:31 | 4.42157 | -75.33326 | 17782 ft | 356 kts | 284° |
| 2026-05-07 21:31 | 4.42741 | -75.35877 | 17806 ft | 338 kts | 284° |
| 2026-05-07 21:31 | 4.43311 | -75.38364 | 17832 ft | 321 kts | 284° |
| 2026-05-07 21:32 | 4.43855 | -75.40739 | 17864 ft | 317 kts | 284° |
| 2026-05-07 21:32 | 4.44405 | -75.43135 | 17879 ft | 317 kts | 284° |
| 2026-05-07 21:32 | 4.44924 | -75.45403 | 17801 ft | 311 kts | 283° |
| 2026-05-07 21:32 | 4.45431 | -75.47620 | 17667 ft | 301 kts | 284° |
| 2026-05-07 21:33 | 4.45930 | -75.49802 | 17549 ft | 293 kts | 284° |
| 2026-05-07 21:33 | 4.46436 | -75.52018 | 17334 ft | 292 kts | 284° |
| 2026-05-07 21:33 | 4.46903 | -75.54057 | 17100 ft | 291 kts | 284° |
| 2026-05-07 21:33 | 4.47353 | -75.56135 | 16889 ft | 290 kts | 281° |
| 2026-05-07 21:34 | 4.47730 | -75.58310 | 16706 ft | 287 kts | 280° |
| 2026-05-07 21:34 | 4.48076 | -75.60394 | 16533 ft | 277 kts | 280° |
| 2026-05-07 21:34 | 4.48427 | -75.62522 | 16303 ft | 268 kts | 281° |
| 2026-05-07 21:34 | 4.48857 | -75.64545 | 15973 ft | 265 kts | 296° |
| 2026-05-07 21:35 | 4.50082 | -75.66022 | 15433 ft | 261 kts | 333° |
| 2026-05-07 21:35 | 4.51912 | -75.66542 | 14932 ft | 252 kts | 6° |
| 2026-05-07 21:35 | 4.53679 | -75.66175 | 14500 ft | 244 kts | 18° |
| 2026-05-07 21:35 | 4.55449 | -75.65692 | 14033 ft | 241 kts | 16° |
| 2026-05-07 21:36 | 4.57219 | -75.65240 | 13573 ft | 238 kts | 16° |
| 2026-05-07 21:36 | 4.58951 | -75.64809 | 13117 ft | 235 kts | 15° |
| 2026-05-07 21:36 | 4.60737 | -75.64369 | 12660 ft | 238 kts | 15° |
| 2026-05-07 21:36 | 4.62517 | -75.63932 | 12209 ft | 243 kts | 15° |
| 2026-05-07 21:37 | 4.64253 | -75.63506 | 11632 ft | 250 kts | 15° |
| 2026-05-07 21:37 | 4.66054 | -75.63065 | 11212 ft | 245 kts | 14° |
| 2026-05-07 21:37 | 4.67929 | -75.62936 | 10725 ft | 241 kts | 349° |
| 2026-05-07 21:37 | 4.69565 | -75.63602 | 10346 ft | 234 kts | 324° |
| 2026-05-07 21:38 | 4.70744 | -75.64851 | 10059 ft | 219 kts | 303° |
| 2026-05-07 21:38 | 4.71330 | -75.66407 | 9589 ft | 215 kts | 279° |
| 2026-05-07 21:38 | 4.71274 | -75.68034 | 9167 ft | 208 kts | 257° |
| 2026-05-07 21:38 | 4.70639 | -75.69475 | 8731 ft | 202 kts | 235° |
| 2026-05-07 21:39 | 4.69594 | -75.70536 | 8382 ft | 193 kts | 214° |
| 2026-05-07 21:39 | 4.68324 | -75.71150 | 8005 ft | 187 kts | 196° |
| 2026-05-07 21:39 | 4.67001 | -75.71500 | 7701 ft | 187 kts | 193° |
| 2026-05-07 21:39 | 4.65630 | -75.71827 | 7470 ft | 185 kts | 193° |
| 2026-05-07 21:40 | 4.64264 | -75.72147 | 7276 ft | 185 kts | 192° |
| 2026-05-07 21:40 | 4.62961 | -75.72452 | 7075 ft | 173 kts | 193° |
| 2026-05-07 21:40 | 4.61667 | -75.72755 | 6884 ft | 171 kts | 193° |
| 2026-05-07 21:40 | 4.60387 | -75.73057 | 6654 ft | 170 kts | 193° |
| 2026-05-07 21:41 | 4.59134 | -75.73352 | 6428 ft | 170 kts | 193° |
| 2026-05-07 21:41 | 4.57968 | -75.73627 | 6203 ft | 169 kts | 193° |
| 2026-05-07 21:41 | 4.56762 | -75.73911 | 5975 ft | 164 kts | 193° |
| 2026-05-07 21:41 | 4.55603 | -75.74184 | 5731 ft | 155 kts | 193° |
| 2026-05-07 21:42 | 4.54481 | -75.74449 | 5525 ft | 154 kts | 193° |
| 2026-05-07 21:42 | 4.53370 | -75.74711 | 5329 ft | 153 kts | 193° |
| 2026-05-07 21:42 | 4.52274 | -75.74969 | 5134 ft | 152 kts | 193° |
| 2026-05-07 21:42 | 4.51165 | -75.75230 | 4935 ft | 152 kts | 193° |
| 2026-05-07 21:43 | 4.50076 | -75.75487 | 4734 ft | 151 kts | 193° |
| 2026-05-07 21:43 | 4.48978 | -75.75746 | 4532 ft | 151 kts | 192° |
| 2026-05-07 21:43 | 4.47863 | -75.75991 | 4329 ft | 150 kts | 192° |
| 2026-05-07 21:43 | 4.46738 | -75.76264 | 4129 ft | 151 kts | 192° |
| 2026-05-07 21:44 | 4.45666 | -75.76516 | 4011 ft | 132 kts | 193° |
| 2026-05-07 21:44 | 4.45055 | -75.76661 | 4013 ft | 49 kts | 194° |
| 2026-05-07 21:44 | 4.44719 | -75.76743 | 4014 ft | 46 kts | 193° |
| 2026-05-07 21:44 | 4.44436 | -75.76810 | 4015 ft | 22 kts | 193° |
| 2026-05-07 21:45 | 4.44273 | -75.76849 | 4015 ft | 21 kts | 194° |
| 2026-05-07 21:45 | 4.44165 | -75.76862 | 4016 ft | 7 kts | 185° |
| 2026-05-07 21:45 | 4.44167 | -75.76881 | 4016 ft | 5 kts | 4° |
| 2026-05-07 21:45 | 4.44213 | -75.76869 | 4016 ft | 8 kts | 15° |
| 2026-05-07 21:46 | 4.44296 | -75.76847 | 4015 ft | 17 kts | 14° |
| 2026-05-07 21:46 | 4.44454 | -75.76807 | 4015 ft | 24 kts | 16° |
| 2026-05-07 21:46 | 4.44622 | -75.76766 | 4014 ft | 23 kts | 13° |
| 2026-05-07 21:46 | 4.44782 | -75.76729 | 4014 ft | 22 kts | 14° |
| 2026-05-07 21:47 | 4.44934 | -75.76692 | 4013 ft | 21 kts | 13° |
| 2026-05-07 21:47 | 4.45084 | -75.76654 | 4013 ft | 21 kts | 15° |
| 2026-05-07 21:47 | 4.45186 | -75.76638 | 4012 ft | 11 kts | 348° |
| 2026-05-07 21:47 | 4.45235 | -75.76698 | 4012 ft | 9 kts | 324° |
| 2026-05-07 21:48 | 4.45281 | -75.76699 | 4012 ft | 5 kts | 13° |
| 2026-05-07 21:48 | 4.45314 | -75.76707 | 4012 ft | 5 kts | 301° |
| 2026-05-07 21:48 | 4.45322 | -75.76736 | 4011 ft | 1 kts | 281° |
| 2026-05-07 21:48 | 4.45323 | -75.76742 | 4011 ft | 0 kts | 282° |